Aérodrome :
LOGIN :

S'inscrire | Disclaimer

   EN    FR    IT 

 










Légende :    VFR   VFR Marginal   IFR   IFR Intensif   IFR Très Intensif
Visi : 
Plafond : 
>= 8 km
>= 3000ft
5 à 8 km
1000 à 3000 ft
1500m à 5 km
500 à 1000 ft
800 à 1500m
200 à 500 ft
< 800m
< 200 ft
Symboles :   Orages  Brouillard  Fortes neiges  Fortes précipitations  Vent > 20 kt
SIGMETs :   Divers  Orages  Givrage  Turbulence  Onde Orograph.  Cendres Volcan.







- Altitude de l'aérodrome : 495 ft
- Code IATA : BUD


LHBP - Budapest Ferihegy

DERNIER METAR :
  • 190100Z 00000KT 9999 FEW038 BKN250 18/18 Q1014 NOSIG

METARs EXPIRÉS :
  • 190030Z VRB02KT 9999 FEW037 BKN250 18/18 Q1015 NOSIG
  • 190000Z VRB01KT CAVOK 19/19 Q1015 NOSIG
  • 182330Z 35004KT CAVOK 18/18 Q1015 NOSIG
  • 182300Z 00000KT CAVOK 18/18 Q1015 NOSIG
  • 182230Z VRB01KT CAVOK 19/19 Q1015 NOSIG

TAF TAF LHBP
Valide du 19 à 00h jusqu'au 20 à 00h UTC


182315Z 1900/1924 VRB03KT CAVOK
TEMPO 1909/1922 VRB15G25KT 4000 TSRA SCT045CB BKN100
PROB30
TEMPO 1912/1916 VRB20G40KT 1700 +TSRAGR BKN040CB BKN100
Pas de NOTAMs connus pour ce terrain.
1 SIGMET publié pour la FIR Budapest (LHCC) :
 
Orages noyés dans la masse
LHCC SIGMET 06 VALID 182230/182400 LHBP
LHCC BUDAPEST FIR EMBD TS OBS WI N4823 E02142 - N4752 E02110 - N4752 E02017 - N4811 E02001 - N4837 E02031 - N4836 E02127 - N4823 E02142 SFC/FL330 MOV N NC=



MET'MAP, la Météo Aéronautique d'un coup d'oeil ! - Copyright ORBIFLY Décembre 2007 - Disclaimer

ORBIFLY MET'MAP TEAM :

Programmation & Développement : Alexandra Zaïnal
Conception & Développement : Baudouin d'Aumeries
Co-Programmation & Développement : Marc-Olivier Méhu
Soutien technique & logistique : Manuel Goepfert

Contact : metmap@orbifly.com




SOURCES & CREDITS :

   NOAA